Time;durP1;ratioP1;P1;durP2;ratioP2;P2;SDS_P1;SDS_P2;PMS_P1;PMS_P2;Temp;Humidity;BMP_temperature;BMP_pressure;BME280_temperature;BME280_humidity;BME280_pressure;Samples;Min_cycle;Max_cycle;Signal;HPM_P1;HPM_P2
2022/10/18 00:00:52;;;;;;;2.08;1.42;;;15.30;92.90;;;;;;6210515;23;20087;-78
2022/10/18 00:03:19;;;;;;;1.67;1.33;;;15.30;92.90;;;;;;6237729;23;19984;-78
2022/10/18 00:05:46;;;;;;;1.38;1.08;;;15.30;92.90;;;;;;6210952;23;20039;-78
2022/10/18 00:08:12;;;;;;;1.85;1.33;;;15.30;93.00;;;;;;6187161;23;19992;-78
2022/10/18 00:10:38;;;;;;;2.13;1.40;;;15.30;92.90;;;;;;6212425;23;20096;-78
2022/10/18 00:13:04;;;;;;;1.85;1.23;;;15.20;92.90;;;;;;6239953;23;20048;-79
2022/10/18 00:15:30;;;;;;;1.40;1.20;;;15.40;92.90;;;;;;6213899;23;19996;-79
2022/10/18 00:17:56;;;;;;;2.28;1.40;;;15.30;92.90;;;;;;6190003;23;19997;-79
2022/10/18 00:20:22;;;;;;;1.90;1.30;;;15.40;92.90;;;;;;6241360;23;20064;-79
2022/10/18 00:22:47;;;;;;;1.27;1.10;;;15.40;92.90;;;;;;6240331;23;20016;-79
2022/10/18 00:25:13;;;;;;;1.55;1.27;;;15.30;92.90;;;;;;6239657;23;20040;-79
2022/10/18 00:27:39;;;;;;;1.20;1.10;;;15.30;92.90;;;;;;6239766;23;20012;-79
2022/10/18 00:30:05;;;;;;;2.55;1.50;;;15.30;92.90;;;;;;6189070;23;20004;-79
2022/10/18 00:32:36;;;;;;;1.58;1.40;;;15.30;92.90;;;;;;6240698;23;19996;-79
2022/10/18 00:35:02;;;;;;;1.42;1.25;;;15.30;93.00;;;;;;6213429;23;20027;-79
2022/10/18 00:37:28;;;;;;;2.75;1.38;;;15.30;92.90;;;;;;6214332;23;19992;-78
2022/10/18 00:39:53;;;;;;;1.50;1.17;;;15.30;92.90;;;;;;6239712;23;19996;-79
2022/10/18 00:42:21;;;;;;;0.95;0.90;;;15.30;92.90;;;;;;6214376;23;20015;-79
2022/10/18 00:45:04;;;;;;;1.45;1.23;;;15.20;92.90;;;;;;6190013;23;20007;-79
2022/10/18 00:47:31;;;;;;;0.80;0.80;;;15.20;93.00;;;;;;6238898;23;20016;-79
2022/10/18 00:50:01;;;;;;;1.83;1.13;;;15.30;93.00;;;;;;6241162;23;20016;-78
2022/10/18 00:52:34;;;;;;;1.20;1.10;;;15.20;92.90;;;;;;6190454;23;19999;-78
2022/10/18 00:55:00;;;;;;;1.33;1.13;;;15.30;93.00;;;;;;6186141;23;20009;-78
2022/10/18 00:57:26;;;;;;;1.77;1.17;;;15.30;93.20;;;;;;6237702;22;20059;-79
2022/10/18 00:59:53;;;;;;;1.30;1.20;;;15.30;93.00;;;;;;6239608;23;20000;-78
2022/10/18 01:02:20;;;;;;;1.50;1.20;;;15.30;93.00;;;;;;6212426;23;20005;-79
2022/10/18 01:04:47;;;;;;;1.20;1.05;;;15.20;92.90;;;;;;6211639;23;20047;-79
2022/10/18 01:07:34;;;;;;;1.20;1.10;;;15.30;92.90;;;;;;6210340;23;20076;-79
2022/10/18 01:10:25;;;;;;;0.95;0.93;;;15.30;93.20;;;;;;6234552;23;19992;-78
2022/10/18 01:13:19;;;;;;;0.95;0.90;;;15.30;92.90;;;;;;6236100;23;20085;-78
2022/10/18 01:16:01;;;;;;;1.20;1.08;;;15.30;92.90;;;;;;6201313;23;20074;-79
2022/10/18 01:18:43;;;;;;;1.08;1.00;;;15.30;92.90;;;;;;6223999;23;20012;-79
2022/10/18 01:21:28;;;;;;;1.17;1.00;;;15.40;92.90;;;;;;6196189;23;20095;-79
2022/10/18 01:24:23;;;;;;;0.82;0.80;;;15.40;92.90;;;;;;6172308;23;20008;-79
2022/10/18 01:27:24;;;;;;;0.98;0.88;;;15.30;92.90;;;;;;6218559;23;20064;-81
2022/10/18 01:30:24;;;;;;;0.82;0.82;;;15.30;92.90;;;;;;6222067;23;20016;-79
2022/10/18 01:32:54;;;;;;;1.08;0.88;;;15.30;92.90;;;;;;6218439;23;20005;-79
2022/10/18 01:35:28;;;;;;;0.80;0.80;;;15.30;92.90;;;;;;6193184;23;20012;-79
2022/10/18 01:37:56;;;;;;;1.13;1.02;;;15.30;92.90;;;;;;6190899;23;20020;-79
2022/10/18 01:40:24;;;;;;;1.05;0.90;;;15.30;92.90;;;;;;6168850;23;20087;-79
2022/10/18 01:42:50;;;;;;;1.00;0.90;;;15.40;92.90;;;;;;6193254;23;20341;-79
2022/10/18 01:45:18;;;;;;;1.20;1.02;;;15.30;92.90;;;;;;6193317;23;20012;-79
2022/10/18 01:47:45;;;;;;;0.88;0.77;;;15.30;92.90;;;;;;6193671;23;20004;-79
2022/10/18 01:50:11;;;;;;;0.77;0.77;;;15.30;92.90;;;;;;6224080;23;20021;-79
2022/10/18 01:52:52;;;;;;;1.23;0.90;;;15.30;92.90;;;;;;6146549;23;20005;-79
2022/10/18 01:55:26;;;;;;;1.30;1.10;;;15.40;92.90;;;;;;6222711;23;20009;-79
2022/10/18 01:58:09;;;;;;;1.08;0.75;;;15.30;92.90;;;;;;6169345;23;20019;-79
2022/10/18 02:00:41;;;;;;;1.13;0.90;;;15.40;92.90;;;;;;6220454;23;20031;-79
2022/10/18 02:03:20;;;;;;;0.80;0.80;;;15.40;92.90;;;;;;6222286;23;20008;-78
2022/10/18 02:05:56;;;;;;;1.20;1.02;;;15.40;92.90;;;;;;6200783;23;20105;-79
2022/10/18 02:08:43;;;;;;;1.52;0.98;;;15.40;92.90;;;;;;6169814;23;20008;-78
2022/10/18 02:11:11;;;;;;;1.27;1.02;;;15.40;92.90;;;;;;6201749;23;20005;-79
2022/10/18 02:14:01;;;;;;;1.52;1.23;;;15.40;92.90;;;;;;6199712;23;20016;-78
2022/10/18 02:16:34;;;;;;;1.33;1.00;;;15.40;92.90;;;;;;6176419;23;20023;-78
2022/10/18 02:19:09;;;;;;;1.38;1.00;;;15.40;92.90;;;;;;6154240;23;20027;-78
2022/10/18 02:21:37;;;;;;;1.48;1.00;;;15.40;92.90;;;;;;6203237;23;20005;-78
2022/10/18 02:24:04;;;;;;;1.00;0.90;;;15.30;92.90;;;;;;6203530;23;20008;-78
2022/10/18 02:26:30;;;;;;;0.80;0.80;;;15.30;92.90;;;;;;6179639;23;20032;-78
2022/10/18 02:28:56;;;;;;;1.50;1.00;;;15.40;92.90;;;;;;6232676;23;20009;-78
2022/10/18 02:31:34;;;;;;;1.02;0.85;;;15.30;93.00;;;;;;6205041;23;20005;-78
2022/10/18 02:34:12;;;;;;;1.10;1.00;;;15.40;93.00;;;;;;6230710;23;20028;-78
2022/10/18 02:36:51;;;;;;;0.93;0.90;;;15.30;93.00;;;;;;6231079;23;20016;-78
2022/10/18 02:39:21;;;;;;;1.10;1.00;;;15.30;93.00;;;;;;6231763;23;20440;-78
2022/10/18 02:41:48;;;;;;;1.48;1.02;;;15.30;93.00;;;;;;6207393;23;20018;-79
2022/10/18 02:44:14;;;;;;;1.38;1.05;;;15.30;93.00;;;;;;6198506;23;20015;-79
2022/10/18 02:46:40;;;;;;;1.10;0.98;;;15.20;93.00;;;;;;6195225;23;20000;-79
2022/10/18 02:49:06;;;;;;;1.35;1.05;;;15.30;93.00;;;;;;6223934;23;20027;-79
2022/10/18 02:51:33;;;;;;;1.10;1.00;;;15.30;93.00;;;;;;6226353;23;20008;-78
2022/10/18 02:53:59;;;;;;;0.85;0.85;;;15.20;93.00;;;;;;6225608;23;20512;-79
2022/10/18 02:56:24;;;;;;;1.00;0.82;;;15.20;93.10;;;;;;6198258;23;20008;-79
2022/10/18 02:58:50;;;;;;;1.20;1.00;;;15.30;93.10;;;;;;6169533;23;20095;-79
2022/10/18 03:01:16;;;;;;;1.27;1.05;;;15.30;93.10;;;;;;6197372;23;20012;-78
2022/10/18 03:03:42;;;;;;;1.25;1.02;;;15.20;93.00;;;;;;6221521;23;20456;-79
2022/10/18 03:06:07;;;;;;;1.02;0.93;;;15.20;93.10;;;;;;6219135;23;20027;-79
2022/10/18 03:08:34;;;;;;;1.55;1.27;;;15.20;93.10;;;;;;6166696;23;20013;-79
2022/10/18 03:11:00;;;;;;;1.85;1.10;;;15.20;93.10;;;;;;6217706;23;20005;-79
2022/10/18 03:13:26;;;;;;;1.85;1.27;;;15.20;93.10;;;;;;6212809;23;20009;-79
2022/10/18 03:15:52;;;;;;;1.42;1.23;;;15.10;93.10;;;;;;6168520;23;20083;-79
2022/10/18 03:18:17;;;;;;;1.27;1.00;;;15.10;93.10;;;;;;6220172;23;20013;-78
2022/10/18 03:20:43;;;;;;;1.23;1.00;;;15.10;93.10;;;;;;6218745;23;20013;-79
2022/10/18 03:23:09;;;;;;;1.30;1.20;;;15.10;93.20;;;;;;6190374;23;20008;-79
2022/10/18 03:25:34;;;;;;;1.58;1.10;;;15.10;93.10;;;;;;6217384;23;20014;-78
2022/10/18 03:28:00;;;;;;;1.50;1.20;;;15.10;93.20;;;;;;6143031;23;20052;-79
2022/10/18 03:30:26;;;;;;;1.40;1.30;;;15.10;93.20;;;;;;6222290;23;20011;-79
2022/10/18 03:32:53;;;;;;;1.10;1.00;;;15.10;93.20;;;;;;6169512;23;20008;-79
2022/10/18 03:35:19;;;;;;;0.90;0.90;;;15.00;93.10;;;;;;6221748;23;20066;-79
2022/10/18 03:37:45;;;;;;;1.00;0.80;;;15.10;93.20;;;;;;6220008;23;20020;-79
2022/10/18 03:40:10;;;;;;;1.20;1.10;;;15.00;93.20;;;;;;6191731;23;20058;-78
2022/10/18 03:42:36;;;;;;;1.00;0.90;;;15.00;93.10;;;;;;6191633;23;20012;-79
2022/10/18 03:45:03;;;;;;;1.02;0.90;;;15.00;93.20;;;;;;6191063;23;20365;-79
2022/10/18 03:47:29;;;;;;;1.27;1.05;;;15.00;93.20;;;;;;6219937;23;20008;-79
2022/10/18 03:49:54;;;;;;;1.00;0.90;;;14.90;93.20;;;;;;6192775;23;20015;-79
2022/10/18 03:52:20;;;;;;;1.17;1.08;;;14.90;93.20;;;;;;6194325;23;20051;-79
2022/10/18 03:54:46;;;;;;;0.85;0.80;;;15.00;93.40;;;;;;6220384;23;20495;-79
2022/10/18 03:57:12;;;;;;;0.82;0.75;;;15.00;93.10;;;;;;6194277;23;20008;-79
2022/10/18 03:59:37;;;;;;;1.20;1.10;;;15.00;93.20;;;;;;6166878;23;20433;-78
2022/10/18 04:02:03;;;;;;;0.95;0.88;;;14.90;93.20;;;;;;6191728;23;20009;-79
2022/10/18 04:04:29;;;;;;;1.13;0.90;;;14.90;93.20;;;;;;6218153;23;20296;-79
2022/10/18 04:06:55;;;;;;;1.02;0.93;;;14.90;93.20;;;;;;6217748;23;20067;-79
2022/10/18 04:09:21;;;;;;;1.00;0.90;;;14.90;93.20;;;;;;6190239;23;20008;-78
2022/10/18 04:11:49;;;;;;;1.30;1.20;;;14.80;93.20;;;;;;6218696;23;20016;-79
2022/10/18 04:14:15;;;;;;;1.10;1.00;;;14.90;93.50;;;;;;6193630;23;20024;-78
2022/10/18 04:16:41;;;;;;;1.00;0.90;;;14.80;93.20;;;;;;6192066;23;20011;-79
2022/10/18 04:19:07;;;;;;;1.27;1.08;;;14.80;93.20;;;;;;6214672;23;20009;-78
2022/10/18 04:21:33;;;;;;;0.70;0.70;;;14.90;93.20;;;;;;6191246;23;20008;-79
2022/10/18 04:23:59;;;;;;;1.08;0.98;;;14.80;93.20;;;;;;6217908;23;20016;-78
2022/10/18 04:26:24;;;;;;;1.30;1.00;;;14.80;93.20;;;;;;6218379;23;20036;-79
2022/10/18 04:28:50;;;;;;;1.40;1.00;;;14.80;93.20;;;;;;6193548;23;20054;-79
2022/10/18 04:31:16;;;;;;;1.17;0.98;;;14.70;93.20;;;;;;6192004;23;20197;-79
2022/10/18 04:33:42;;;;;;;1.30;0.90;;;14.80;93.20;;;;;;6167376;23;20011;-78
2022/10/18 04:36:07;;;;;;;1.10;1.00;;;14.70;93.20;;;;;;6192324;23;20012;-78
2022/10/18 04:38:33;;;;;;;0.90;0.90;;;14.70;93.20;;;;;;6168868;23;20071;-78
2022/10/18 04:40:59;;;;;;;1.10;1.00;;;14.70;93.20;;;;;;6192487;23;20012;-78
2022/10/18 04:43:25;;;;;;;0.90;0.90;;;14.70;93.30;;;;;;6219764;23;20012;-78
2022/10/18 04:45:51;;;;;;;1.00;0.90;;;14.60;93.20;;;;;;6220401;23;20404;-78
2022/10/18 04:48:17;;;;;;;0.80;0.80;;;14.70;93.30;;;;;;6220148;23;20015;-78
2022/10/18 04:50:46;;;;;;;0.90;0.80;;;14.60;93.20;;;;;;6220375;23;20011;-78
2022/10/18 04:53:12;;;;;;;1.30;1.20;;;14.70;93.20;;;;;;6192509;23;20041;-78
2022/10/18 04:55:37;;;;;;;1.23;1.10;;;14.70;93.20;;;;;;6222585;23;20436;-78
2022/10/18 04:58:03;;;;;;;1.00;0.90;;;14.60;93.20;;;;;;6219122;23;20016;-78
2022/10/18 05:00:29;;;;;;;0.90;0.73;;;14.60;93.20;;;;;;6191871;23;20008;-78
2022/10/18 05:02:57;;;;;;;1.05;0.95;;;14.60;93.20;;;;;;6221175;23;20083;-78
2022/10/18 05:05:22;;;;;;;1.05;0.95;;;14.50;93.20;;;;;;6195029;23;20009;-79
2022/10/18 05:07:48;;;;;;;0.82;0.82;;;14.60;93.20;;;;;;6192658;23;20039;-78
2022/10/18 05:10:14;;;;;;;1.00;0.90;;;14.60;93.20;;;;;;6195018;23;20012;-78
2022/10/18 05:12:41;;;;;;;0.75;0.60;;;14.60;93.20;;;;;;6194719;23;20430;-79
2022/10/18 05:15:08;;;;;;;0.65;0.65;;;14.50;93.20;;;;;;6216913;23;20017;-79
2022/10/18 05:17:33;;;;;;;1.08;0.90;;;14.50;93.20;;;;;;6216156;23;20017;-79
2022/10/18 05:19:59;;;;;;;0.82;0.80;;;14.50;93.20;;;;;;6213882;23;20468;-79
2022/10/18 05:22:25;;;;;;;1.23;0.90;;;14.50;93.20;;;;;;6167046;23;20013;-79
2022/10/18 05:24:51;;;;;;;0.82;0.82;;;14.60;93.20;;;;;;6218026;23;20025;-79
2022/10/18 05:27:16;;;;;;;1.08;0.93;;;14.50;93.20;;;;;;6217000;23;20417;-79
2022/10/18 05:29:42;;;;;;;0.80;0.80;;;14.50;93.20;;;;;;6164631;23;20062;-79
2022/10/18 05:32:08;;;;;;;1.00;0.90;;;14.40;93.20;;;;;;6216187;23;20001;-79
2022/10/18 05:34:33;;;;;;;1.00;0.93;;;14.50;93.20;;;;;;6216506;23;20445;-79
2022/10/18 05:36:59;;;;;;;1.08;0.90;;;14.50;93.20;;;;;;6213468;23;20005;-79
2022/10/18 05:39:25;;;;;;;1.10;1.00;;;14.40;93.20;;;;;;6189104;23;20337;-79
2022/10/18 05:41:51;;;;;;;1.10;0.90;;;14.40;93.20;;;;;;6189118;23;20019;-79
2022/10/18 05:44:17;;;;;;;0.80;0.80;;;14.50;93.20;;;;;;6164673;23;20019;-79
2022/10/18 05:46:42;;;;;;;0.80;0.80;;;14.40;93.20;;;;;;6216479;23;20004;-79
2022/10/18 05:49:11;;;;;;;1.27;0.75;;;14.40;93.20;;;;;;6190045;23;20015;-79
2022/10/18 05:51:36;;;;;;;0.82;0.73;;;14.40;93.20;;;;;;6215524;23;20004;-79
2022/10/18 05:54:02;;;;;;;1.35;1.00;;;14.50;93.20;;;;;;6189081;23;20071;-79
2022/10/18 05:56:28;;;;;;;0.82;0.82;;;14.40;93.20;;;;;;6189224;23;20012;-79
2022/10/18 05:58:54;;;;;;;0.60;0.60;;;14.40;93.20;;;;;;6165163;23;20024;-79
2022/10/18 06:01:20;;;;;;;1.25;0.95;;;14.40;93.10;;;;;;6189659;23;20008;-79
2022/10/18 06:03:46;;;;;;;0.95;0.80;;;14.40;93.10;;;;;;6189198;23;20333;-79
2022/10/18 06:06:13;;;;;;;1.77;0.98;;;14.40;93.10;;;;;;6215928;23;20013;-79
2022/10/18 06:08:40;;;;;;;0.93;0.82;;;14.40;93.10;;;;;;6164749;23;20008;-79
2022/10/18 06:11:09;;;;;;;0.80;0.80;;;14.40;93.20;;;;;;6164068;23;20009;-79
2022/10/18 06:13:41;;;;;;;1.65;1.10;;;14.40;93.20;;;;;;6215826;23;20015;-76
2022/10/18 06:16:07;;;;;;;1.10;1.00;;;14.40;93.20;;;;;;6216914;23;20017;-77
2022/10/18 06:18:33;;;;;;;1.00;0.90;;;14.40;93.20;;;;;;6215979;23;20136;-79
2022/10/18 06:20:59;;;;;;;1.13;0.80;;;14.40;93.20;;;;;;6216912;23;20005;-79
2022/10/18 06:23:26;;;;;;;1.23;1.10;;;14.30;93.20;;;;;;6190238;23;20024;-79
2022/10/18 06:25:51;;;;;;;1.20;1.05;;;14.40;93.20;;;;;;6164502;23;20008;-79
2022/10/18 06:28:18;;;;;;;1.63;1.20;;;14.40;93.10;;;;;;6190494;23;20036;-79
2022/10/18 06:30:44;;;;;;;1.55;0.95;;;14.40;93.10;;;;;;6166131;23;20013;-79
2022/10/18 06:33:10;;;;;;;1.63;1.10;;;14.40;93.10;;;;;;6189978;23;20425;-79
2022/10/18 06:35:36;;;;;;;1.88;1.20;;;14.30;93.10;;;;;;6190647;23;20023;-79
2022/10/18 06:45:26;;;;;;;1.00;0.82;;;14.30;93.10;;;;;;5993515;23;20030;-80
2022/10/18 06:48:24;;;;;;;1.10;0.93;;;14.40;93.40;;;;;;5977394;23;20020;-79
2022/10/18 10:00:31;;;;;;;0.20;0.20;;;14.60;92.30;;;;;;5840122;24;20048;-78
2022/10/18 10:03:15;;;;;;;0.20;0.20;;;14.70;92.20;;;;;;5843806;24;20018;-77
2022/10/18 10:31:35;;;;;;;0.65;0.30;;;15.00;91.70;;;;;;5976181;23;20102;-77
2022/10/18 10:34:32;;;;;;;1.65;0.35;;;15.00;91.60;;;;;;5866899;24;20071;-77
2022/10/18 10:52:08;;;;;;;0.52;0.20;;;15.30;91.00;;;;;;5807855;24;20030;-76
2022/10/18 11:25:00;;;;;;;0.43;0.30;;;15.70;90.10;;;;;;5894835;24;20093;-75
2022/10/18 12:45:10;;;;;;;0.82;0.30;;;17.20;85.80;;;;;;6119228;23;20244;-75
2022/10/18 12:48:58;;;;;;;1.08;0.40;;;17.20;85.80;;;;;;6003683;23;20023;-75
2022/10/18 12:51:27;;;;;;;1.50;0.50;;;17.30;85.80;;;;;;5926646;24;20028;-75
2022/10/18 13:19:48;;;;;;;1.20;0.30;;;17.50;84.40;;;;;;6061151;23;20046;-75
2022/10/18 13:22:41;;;;;;;0.10;0.10;;;17.50;84.30;;;;;;6042245;23;20085;-76
2022/10/18 13:25:24;;;;;;;0.40;0.30;;;17.50;84.30;;;;;;6048083;23;20089;-74
2022/10/18 14:26:27;;;;;;;0.20;0.20;;;17.10;83.00;;;;;;5894053;24;20032;-73
2022/10/18 14:29:06;;;;;;;0.75;0.20;;;17.10;83.00;;;;;;5877614;23;20063;-75
2022/10/18 14:31:40;;;;;;;0.30;0.20;;;17.10;82.90;;;;;;5933955;24;20060;-75
2022/10/18 14:34:14;;;;;;;0.35;0.20;;;17.10;82.80;;;;;;5962674;23;20504;-75
2022/10/18 14:36:41;;;;;;;0.30;0.20;;;17.00;82.70;;;;;;5937644;23;20063;-74
2022/10/18 14:39:19;;;;;;;0.77;0.50;;;16.90;82.70;;;;;;5983677;23;20010;-73
2022/10/18 14:41:50;;;;;;;0.93;0.30;;;17.00;82.70;;;;;;6051434;23;20002;-73
2022/10/18 14:44:20;;;;;;;0.30;0.30;;;17.00;82.60;;;;;;6045416;23;20081;-75
2022/10/18 14:47:00;;;;;;;0.20;0.20;;;17.10;82.50;;;;;;6045194;23;20022;-75
2022/10/18 15:04:10;;;;;;;0.43;0.20;;;16.90;82.10;;;;;;5977409;24;20452;-74
2022/10/18 15:06:43;;;;;;;0.65;0.20;;;16.80;82.00;;;;;;5932449;24;20549;-74
2022/10/18 15:09:10;;;;;;;0.45;0.20;;;16.80;82.00;;;;;;5932385;24;20024;-74
2022/10/18 15:11:37;;;;;;;0.20;0.20;;;16.70;82.00;;;;;;5956230;24;20027;-74
2022/10/18 15:14:07;;;;;;;1.13;0.17;;;16.70;82.10;;;;;;5978859;24;20446;-75
2022/10/18 15:16:37;;;;;;;0.43;0.22;;;16.60;82.10;;;;;;5932776;24;20016;-74
2022/10/18 15:19:38;;;;;;;0.13;0.13;;;16.60;82.20;;;;;;5956179;24;20330;-75
2022/10/18 15:22:07;;;;;;;0.20;0.10;;;16.70;82.10;;;;;;5960936;24;20430;-74
2022/10/18 15:24:39;;;;;;;0.55;0.20;;;16.60;82.10;;;;;;5956141;24;20008;-75
2022/10/18 15:27:25;;;;;;;0.10;0.10;;;16.50;82.20;;;;;;5978923;24;20038;-74
2022/10/18 15:29:51;;;;;;;0.55;0.13;;;16.60;82.20;;;;;;5978529;24;20047;-73
2022/10/18 15:32:29;;;;;;;1.30;0.20;;;16.50;82.30;;;;;;5978705;23;20323;-75
2022/10/18 15:35:08;;;;;;;0.73;0.22;;;16.30;82.30;;;;;;5978985;24;20032;-73
2022/10/18 15:37:40;;;;;;;0.10;0.10;;;16.30;82.40;;;;;;5978769;23;20052;-73
2022/10/18 15:40:18;;;;;;;0.50;0.25;;;16.30;82.40;;;;;;6026326;23;20132;-74
2022/10/18 15:42:44;;;;;;;0.65;0.25;;;16.40;82.20;;;;;;6124398;23;20014;-76
2022/10/18 15:45:31;;;;;;;0.93;0.30;;;16.40;82.10;;;;;;6124804;23;20024;-75
2022/10/18 15:48:16;;;;;;;0.32;0.30;;;16.40;82.00;;;;;;6099127;23;20458;-74
2022/10/18 15:50:53;;;;;;;0.20;0.10;;;16.30;81.90;;;;;;6095763;23;20470;-74
2022/10/18 15:53:32;;;;;;;0.95;0.20;;;16.30;82.00;;;;;;6095543;23;20010;-75
2022/10/18 15:56:06;;;;;;;0.30;0.20;;;16.20;82.00;;;;;;6097791;23;20339;-75
2022/10/18 15:58:43;;;;;;;0.30;0.28;;;16.20;82.00;;;;;;6124370;23;20036;-74
2022/10/18 16:01:20;;;;;;;0.13;0.13;;;16.10;82.20;;;;;;6122056;23;20009;-74
2022/10/18 16:03:47;;;;;;;0.10;0.10;;;16.10;82.30;;;;;;6073710;23;20097;-74
2022/10/18 16:06:14;;;;;;;0.32;0.22;;;16.00;82.40;;;;;;6123449;23;20014;-75
2022/10/18 16:08:43;;;;;;;0.20;0.20;;;15.90;82.50;;;;;;6124948;23;20006;-74
2022/10/18 16:11:18;;;;;;;0.10;0.10;;;15.80;82.60;;;;;;6098604;23;20009;-75
2022/10/18 16:13:44;;;;;;;0.17;0.13;;;15.70;82.80;;;;;;6123631;23;20010;-75
2022/10/18 16:16:15;;;;;;;0.45;0.35;;;15.70;82.90;;;;;;6124638;23;20085;-75
2022/10/18 16:18:46;;;;;;;0.40;0.35;;;15.60;82.90;;;;;;6122876;23;20411;-77
2022/10/18 16:21:32;;;;;;;0.20;0.20;;;15.50;83.00;;;;;;6098764;23;20085;-74
2022/10/18 16:23:58;;;;;;;0.82;0.22;;;15.40;83.20;;;;;;6122494;23;20006;-74
2022/10/18 16:26:25;;;;;;;0.40;0.20;;;15.40;83.40;;;;;;6124548;23;20102;-74
2022/10/18 16:28:52;;;;;;;0.20;0.20;;;15.40;83.60;;;;;;6097986;23;20006;-74
2022/10/18 16:31:21;;;;;;;1.73;0.35;;;15.20;83.60;;;;;;6124077;23;20076;-74
2022/10/18 16:33:48;;;;;;;0.77;0.30;;;15.20;83.80;;;;;;6124591;23;20072;-74
2022/10/18 16:36:16;;;;;;;0.20;0.20;;;15.10;83.80;;;;;;6124283;23;20036;-74
2022/10/18 16:38:42;;;;;;;0.70;0.30;;;15.20;84.00;;;;;;6099111;23;20014;-74
2022/10/18 16:41:09;;;;;;;0.40;0.30;;;15.00;84.00;;;;;;6099249;23;20101;-75
2022/10/18 16:43:37;;;;;;;0.95;0.47;;;15.00;84.20;;;;;;6098930;23;20073;-74
2022/10/18 16:46:03;;;;;;;0.40;0.25;;;14.90;84.30;;;;;;6093311;23;20021;-74
2022/10/18 16:48:29;;;;;;;0.47;0.38;;;14.80;84.50;;;;;;6095001;23;20013;-74
2022/10/18 16:50:56;;;;;;;0.88;0.30;;;14.70;84.60;;;;;;6090188;23;20015;-74
2022/10/18 16:53:23;;;;;;;0.68;0.30;;;14.70;84.80;;;;;;6124663;23;20079;-76
2022/10/18 16:55:54;;;;;;;0.63;0.30;;;14.60;85.00;;;;;;6099507;23;20088;-77
2022/10/18 16:58:21;;;;;;;;;;;14.50;85.20;;;;;;6098130;23;20029;-74
2022/10/18 17:00:48;;;;;;;0.65;0.22;;;14.50;85.30;;;;;;6124385;23;19904;-74
2022/10/18 17:03:14;;;;;;;0.20;0.20;;;14.40;85.40;;;;;;6096888;23;20014;-75
2022/10/18 17:05:40;;;;;;;0.32;0.20;;;14.40;85.50;;;;;;6124299;23;20363;-74
2022/10/18 17:08:07;;;;;;;0.70;0.40;;;14.30;85.50;;;;;;6098394;23;20002;-74
2022/10/18 17:10:33;;;;;;;0.20;0.20;;;14.30;85.60;;;;;;6098076;23;20044;-74
2022/10/18 17:12:58;;;;;;;1.30;0.50;;;14.20;85.80;;;;;;6096541;23;20486;-74
2022/10/18 17:15:24;;;;;;;0.35;0.35;;;14.10;86.40;;;;;;6124671;23;20411;-73
2022/10/18 17:17:50;;;;;;;0.57;0.30;;;14.10;85.80;;;;;;6098070;23;20017;-73
2022/10/18 17:20:24;;;;;;;0.32;0.32;;;14.10;85.90;;;;;;6124148;23;20471;-73
2022/10/18 17:22:50;;;;;;;0.30;0.30;;;14.00;86.10;;;;;;6124075;23;20105;-74
2022/10/18 17:25:17;;;;;;;0.20;0.20;;;14.00;86.20;;;;;;6123883;23;20017;-74
2022/10/18 17:27:43;;;;;;;0.28;0.20;;;14.00;86.20;;;;;;6098181;23;20010;-74
2022/10/18 17:30:10;;;;;;;0.80;0.30;;;13.90;86.20;;;;;;6124129;23;20002;-74
2022/10/18 17:32:36;;;;;;;0.50;0.30;;;13.80;86.30;;;;;;6123712;23;20004;-74
2022/10/18 17:35:03;;;;;;;0.85;0.45;;;13.70;86.40;;;;;;6123871;23;20093;-73
2022/10/18 17:37:29;;;;;;;0.35;0.20;;;13.70;86.60;;;;;;6124085;23;20359;-73
2022/10/18 17:39:54;;;;;;;0.20;0.20;;;13.70;86.80;;;;;;6123989;23;19998;-74
2022/10/18 17:42:20;;;;;;;0.15;0.10;;;13.60;86.70;;;;;;6120605;23;20364;-74
2022/10/18 17:44:47;;;;;;;0.10;0.10;;;13.50;86.80;;;;;;6123683;23;20030;-74
2022/10/18 17:47:13;;;;;;;0.90;0.32;;;13.50;86.90;;;;;;6124311;23;20030;-75
2022/10/18 17:49:38;;;;;;;0.20;0.20;;;13.50;86.90;;;;;;6095628;23;20101;-75
2022/10/18 17:52:04;;;;;;;0.20;0.20;;;13.40;86.90;;;;;;6124023;23;20125;-75
2022/10/18 17:54:30;;;;;;;1.42;0.40;;;13.40;87.00;;;;;;6098770;23;20017;-75
2022/10/18 17:56:56;;;;;;;0.10;0.10;;;13.40;87.00;;;;;;6097987;23;20307;-75
2022/10/18 17:59:22;;;;;;;0.20;0.20;;;13.30;86.90;;;;;;6090096;23;20006;-75
2022/10/18 18:01:48;;;;;;;0.30;0.20;;;13.40;87.00;;;;;;6093974;23;20089;-75
2022/10/18 18:04:15;;;;;;;0.55;0.20;;;13.20;86.90;;;;;;6069305;23;20367;-75
2022/10/18 18:06:42;;;;;;;0.60;0.20;;;13.20;87.00;;;;;;6094221;23;20015;-74
2022/10/18 18:09:29;;;;;;;0.10;0.10;;;13.10;87.10;;;;;;6094197;23;20073;-74
2022/10/18 18:11:55;;;;;;;0.20;0.20;;;13.10;87.30;;;;;;6093710;23;20014;-75
2022/10/18 18:14:21;;;;;;;0.30;0.22;;;12.90;87.50;;;;;;6093480;23;20003;-75
2022/10/18 18:16:47;;;;;;;0.20;0.20;;;12.90;87.70;;;;;;6092736;23;20006;-75
2022/10/18 18:19:14;;;;;;;0.17;0.17;;;12.80;87.70;;;;;;6094279;23;20010;-76
2022/10/18 18:21:41;;;;;;;0.77;0.28;;;12.70;87.80;;;;;;6094422;23;20014;-75
2022/10/18 18:24:08;;;;;;;0.20;0.20;;;12.70;88.00;;;;;;6107001;23;20010;-75
2022/10/18 18:26:37;;;;;;;0.30;0.17;;;12.50;88.00;;;;;;6124006;23;20025;-75
2022/10/18 18:29:03;;;;;;;0.95;0.22;;;12.50;88.10;;;;;;6124417;23;19998;-75
2022/10/18 18:31:29;;;;;;;0.73;0.30;;;12.50;88.20;;;;;;6099269;23;20369;-76
2022/10/18 18:33:56;;;;;;;0.20;0.20;;;12.40;88.30;;;;;;6125627;23;20109;-75
2022/10/18 18:36:24;;;;;;;0.10;0.10;;;12.40;88.40;;;;;;6098794;23;20431;-75
2022/10/18 18:38:51;;;;;;;0.20;0.20;;;12.30;88.40;;;;;;6121832;23;20002;-75
2022/10/18 18:41:20;;;;;;;0.40;0.20;;;12.30;88.50;;;;;;6096157;23;20090;-76
2022/10/18 18:43:54;;;;;;;0.45;0.20;;;12.20;88.60;;;;;;6124743;23;20006;-75
2022/10/18 18:46:21;;;;;;;0.70;0.30;;;12.20;88.60;;;;;;6096434;23;20462;-75
2022/10/18 18:48:47;;;;;;;0.50;0.30;;;12.10;88.60;;;;;;6124882;23;20001;-76
2022/10/18 18:51:15;;;;;;;0.40;0.30;;;12.10;88.70;;;;;;6100205;23;19998;-78
2022/10/18 18:53:46;;;;;;;0.20;0.20;;;12.00;88.70;;;;;;6098607;23;20058;-77
2022/10/18 18:56:14;;;;;;;0.38;0.30;;;12.10;88.90;;;;;;6093902;23;20026;-77
2022/10/18 18:58:42;;;;;;;0.65;0.45;;;11.90;88.90;;;;;;6095381;23;20006;-78
2022/10/18 19:01:11;;;;;;;0.28;0.28;;;11.80;88.90;;;;;;6094668;23;20403;-79
2022/10/18 19:03:39;;;;;;;0.30;0.30;;;11.90;89.10;;;;;;6094665;23;20010;-80
2022/10/18 19:06:08;;;;;;;0.45;0.20;;;11.80;89.10;;;;;;6015755;23;20018;-77
2022/10/18 19:08:39;;;;;;;0.30;0.30;;;11.70;89.10;;;;;;6039419;23;20003;-77
2022/10/18 19:11:09;;;;;;;0.28;0.28;;;11.70;89.30;;;;;;6038152;23;20523;-77
2022/10/18 19:13:35;;;;;;;0.60;0.30;;;11.60;89.30;;;;;;6039661;23;20014;-75
2022/10/18 19:16:20;;;;;;;0.32;0.20;;;11.60;89.30;;;;;;6040034;23;20019;-76
2022/10/18 19:18:57;;;;;;;0.80;0.40;;;11.60;89.40;;;;;;6040048;23;20093;-77
2022/10/18 19:21:25;;;;;;;0.57;0.30;;;11.60;89.50;;;;;;6039646;23;20025;-77
2022/10/18 19:23:51;;;;;;;0.30;0.30;;;11.50;89.40;;;;;;6064570;23;20018;-78
2022/10/18 19:26:28;;;;;;;0.50;0.30;;;11.40;89.40;;;;;;6039620;23;20023;-78
2022/10/18 19:28:54;;;;;;;0.60;0.30;;;11.30;89.50;;;;;;6039398;23;20015;-78
2022/10/18 19:31:21;;;;;;;0.75;0.30;;;11.40;89.50;;;;;;6039636;23;20015;-78
2022/10/18 19:33:52;;;;;;;0.25;0.22;;;11.40;89.50;;;;;;6040432;23;20050;-78
2022/10/18 19:36:17;;;;;;;0.20;0.20;;;11.40;89.50;;;;;;6046001;23;20014;-77
2022/10/18 19:38:46;;;;;;;0.10;0.10;;;11.50;89.50;;;;;;6093991;23;20082;-78
2022/10/18 19:41:12;;;;;;;0.22;0.22;;;11.50;89.30;;;;;;6071501;23;20348;-77
2022/10/18 19:43:40;;;;;;;0.30;0.30;;;11.60;89.20;;;;;;6071704;23;20011;-79
2022/10/18 19:46:06;;;;;;;0.10;0.10;;;11.60;89.20;;;;;;6047501;23;20023;-80
2022/10/18 19:49:17;;;;;;;0.30;0.30;;;11.60;89.60;;;;;;6010770;23;20019;-80
2022/10/18 19:52:27;;;;;;;0.60;0.22;;;11.50;88.90;;;;;;6007407;23;20019;-79
2022/10/18 19:55:42;;;;;;;0.28;0.28;;;11.60;89.00;;;;;;6006487;23;20481;-78
2022/10/18 19:58:47;;;;;;;0.10;0.10;;;11.60;88.90;;;;;;6003766;23;20026;-81
2022/10/18 20:06:03;;;;;;;0.30;0.30;;;11.60;89.10;;;;;;5787975;24;20378;-79
2022/10/18 20:12:03;;;;;;;0.20;0.20;;;11.50;88.90;;;;;;5707085;25;20504;-79
2022/10/18 20:22:38;;;;;;;0.17;0.13;;;11.40;89.10;;;;;;5751419;24;20124;-80
2022/10/18 20:25:05;;;;;;;0.20;0.20;;;11.30;89.10;;;;;;5707885;25;20024;-78
2022/10/18 20:38:29;;;;;;;1.48;0.32;;;11.10;89.60;;;;;;5753907;24;20034;-79
2022/10/18 20:41:18;;;;;;;0.45;0.22;;;10.90;89.60;;;;;;5788412;24;20027;-79
2022/10/18 20:43:44;;;;;;;0.82;0.20;;;10.90;89.90;;;;;;5789450;24;20020;-79
2022/10/18 20:46:10;;;;;;;0.20;0.10;;;10.70;89.90;;;;;;5796326;24;20353;-79
2022/10/18 20:48:37;;;;;;;0.22;0.20;;;10.80;90.00;;;;;;5873757;24;20014;-79
2022/10/18 20:51:07;;;;;;;0.20;0.20;;;10.70;90.00;;;;;;5896403;24;20029;-80
2022/10/18 20:53:35;;;;;;;0.20;0.20;;;10.70;90.10;;;;;;5905087;24;20107;-79
2022/10/18 20:56:03;;;;;;;0.15;0.10;;;10.70;90.10;;;;;;6000855;23;20427;-79